sensor_id;sensor_type;location;lat;lon;timestamp;pressure;altitude;pressure_sealevel;temperature;humidity
55373;BME280;70018;47.838;16.490;2024-01-07T00:01:29;98161.38;;;2.40;100.00
55373;BME280;70018;47.838;16.490;2024-01-07T00:03:55;98170.56;;;2.35;100.00
55373;BME280;70018;47.838;16.490;2024-01-07T00:06:22;98153.81;;;2.33;100.00
55373;BME280;70018;47.838;16.490;2024-01-07T00:08:49;98156.88;;;2.32;100.00
55373;BME280;70018;47.838;16.490;2024-01-07T00:11:15;98181.19;;;2.28;100.00
55373;BME280;70018;47.838;16.490;2024-01-07T00:13:42;98154.69;;;2.25;100.00
55373;BME280;70018;47.838;16.490;2024-01-07T00:16:09;98162.41;;;2.23;100.00
55373;BME280;70018;47.838;16.490;2024-01-07T00:18:36;98163.06;;;2.20;100.00
55373;BME280;70018;47.838;16.490;2024-01-07T00:21:03;98153.56;;;2.14;100.00
55373;BME280;70018;47.838;16.490;2024-01-07T00:23:30;98152.66;;;2.10;100.00
55373;BME280;70018;47.838;16.490;2024-01-07T00:25:56;98140.09;;;2.06;100.00
55373;BME280;70018;47.838;16.490;2024-01-07T00:28:23;98165.97;;;2.03;100.00
55373;BME280;70018;47.838;16.490;2024-01-07T00:30:50;98150.72;;;1.99;100.00
55373;BME280;70018;47.838;16.490;2024-01-07T00:33:16;98157.47;;;1.92;100.00
55373;BME280;70018;47.838;16.490;2024-01-07T00:35:43;98161.34;;;1.91;100.00
55373;BME280;70018;47.838;16.490;2024-01-07T00:38:10;98163.91;;;1.88;100.00
55373;BME280;70018;47.838;16.490;2024-01-07T00:40:36;98175.13;;;1.86;100.00
55373;BME280;70018;47.838;16.490;2024-01-07T00:43:04;98168.09;;;1.85;100.00
55373;BME280;70018;47.838;16.490;2024-01-07T00:45:31;98179.28;;;1.84;100.00
55373;BME280;70018;47.838;16.490;2024-01-07T00:47:58;98184.59;;;1.80;100.00
55373;BME280;70018;47.838;16.490;2024-01-07T00:50:24;98166.13;;;1.74;100.00
55373;BME280;70018;47.838;16.490;2024-01-07T00:52:51;98164.75;;;1.68;100.00
55373;BME280;70018;47.838;16.490;2024-01-07T00:55:18;98162.25;;;1.63;100.00
55373;BME280;70018;47.838;16.490;2024-01-07T00:57:45;98171.03;;;1.60;100.00
55373;BME280;70018;47.838;16.490;2024-01-07T01:00:12;98156.91;;;1.54;100.00
55373;BME280;70018;47.838;16.490;2024-01-07T01:02:38;98170.78;;;1.53;100.00
55373;BME280;70018;47.838;16.490;2024-01-07T01:05:05;98168.44;;;1.51;100.00
55373;BME280;70018;47.838;16.490;2024-01-07T01:07:32;98168.75;;;1.50;100.00
55373;BME280;70018;47.838;16.490;2024-01-07T01:09:59;98171.44;;;1.50;100.00
55373;BME280;70018;47.838;16.490;2024-01-07T01:12:26;98175.31;;;1.49;100.00
55373;BME280;70018;47.838;16.490;2024-01-07T01:14:52;98175.63;;;1.47;100.00
55373;BME280;70018;47.838;16.490;2024-01-07T01:17:19;98170.19;;;1.47;100.00
55373;BME280;70018;47.838;16.490;2024-01-07T01:19:46;98161.94;;;1.44;100.00
55373;BME280;70018;47.838;16.490;2024-01-07T01:22:13;98166.91;;;1.42;100.00
55373;BME280;70018;47.838;16.490;2024-01-07T01:24:40;98162.16;;;1.39;100.00
55373;BME280;70018;47.838;16.490;2024-01-07T01:27:06;98162.50;;;1.37;100.00
55373;BME280;70018;47.838;16.490;2024-01-07T01:29:33;98168.69;;;1.38;100.00
55373;BME280;70018;47.838;16.490;2024-01-07T01:32:00;98158.63;;;1.38;100.00
55373;BME280;70018;47.838;16.490;2024-01-07T01:34:26;98162.59;;;1.41;100.00
55373;BME280;70018;47.838;16.490;2024-01-07T01:36:53;98157.19;;;1.41;100.00
55373;BME280;70018;47.838;16.490;2024-01-07T01:39:20;98143.63;;;1.41;100.00
55373;BME280;70018;47.838;16.490;2024-01-07T01:41:47;98145.53;;;1.40;100.00
55373;BME280;70018;47.838;16.490;2024-01-07T01:44:13;98140.09;;;1.40;100.00
55373;BME280;70018;47.838;16.490;2024-01-07T01:46:40;98147.94;;;1.42;100.00
55373;BME280;70018;47.838;16.490;2024-01-07T01:49:07;98169.63;;;1.42;100.00
55373;BME280;70018;47.838;16.490;2024-01-07T01:51:35;98160.34;;;1.43;100.00
55373;BME280;70018;47.838;16.490;2024-01-07T01:54:03;98150.97;;;1.40;100.00
55373;BME280;70018;47.838;16.490;2024-01-07T01:56:29;98151.66;;;1.37;100.00
55373;BME280;70018;47.838;16.490;2024-01-07T01:58:57;98138.41;;;1.36;100.00
55373;BME280;70018;47.838;16.490;2024-01-07T02:01:24;98183.25;;;1.33;100.00
55373;BME280;70018;47.838;16.490;2024-01-07T02:03:51;98139.75;;;1.29;100.00
55373;BME280;70018;47.838;16.490;2024-01-07T02:06:20;98147.75;;;1.26;100.00
55373;BME280;70018;47.838;16.490;2024-01-07T02:08:47;98148.84;;;1.25;100.00
55373;BME280;70018;47.838;16.490;2024-01-07T02:11:19;98151.91;;;1.23;100.00
55373;BME280;70018;47.838;16.490;2024-01-07T02:13:46;98161.50;;;1.21;100.00
55373;BME280;70018;47.838;16.490;2024-01-07T02:16:14;98179.69;;;1.20;100.00
55373;BME280;70018;47.838;16.490;2024-01-07T02:18:42;98156.41;;;1.19;100.00
55373;BME280;70018;47.838;16.490;2024-01-07T02:21:10;98153.22;;;1.17;100.00
55373;BME280;70018;47.838;16.490;2024-01-07T02:23:37;98155.16;;;1.17;100.00
55373;BME280;70018;47.838;16.490;2024-01-07T02:26:04;98166.00;;;1.17;100.00
55373;BME280;70018;47.838;16.490;2024-01-07T02:28:31;98167.13;;;1.16;100.00
55373;BME280;70018;47.838;16.490;2024-01-07T02:30:58;98155.94;;;1.17;100.00
55373;BME280;70018;47.838;16.490;2024-01-07T02:33:25;98168.84;;;1.20;100.00
55373;BME280;70018;47.838;16.490;2024-01-07T02:35:52;98165.66;;;1.18;99.52
55373;BME280;70018;47.838;16.490;2024-01-07T02:38:18;98140.91;;;1.20;100.00
55373;BME280;70018;47.838;16.490;2024-01-07T02:40:45;98156.41;;;1.19;98.00
55373;BME280;70018;47.838;16.490;2024-01-07T02:43:12;98164.22;;;1.21;98.00
55373;BME280;70018;47.838;16.490;2024-01-07T02:45:38;98172.69;;;1.19;98.61
55373;BME280;70018;47.838;16.490;2024-01-07T02:48:05;98190.06;;;1.18;97.67
55373;BME280;70018;47.838;16.490;2024-01-07T02:50:32;98161.03;;;1.19;96.15
55373;BME280;70018;47.838;16.490;2024-01-07T02:52:59;98167.91;;;1.16;95.27
55373;BME280;70018;47.838;16.490;2024-01-07T02:55:26;98160.59;;;1.17;96.12
55373;BME280;70018;47.838;16.490;2024-01-07T02:57:53;98151.66;;;1.16;96.32
55373;BME280;70018;47.838;16.490;2024-01-07T03:00:19;98162.50;;;1.16;95.39
55373;BME280;70018;47.838;16.490;2024-01-07T03:02:46;98160.09;;;1.15;97.31
55373;BME280;70018;47.838;16.490;2024-01-07T03:05:13;98174.00;;;1.13;97.37
55373;BME280;70018;47.838;16.490;2024-01-07T03:07:40;98160.78;;;1.12;98.42
55373;BME280;70018;47.838;16.490;2024-01-07T03:10:07;98174.00;;;1.13;98.96
55373;BME280;70018;47.838;16.490;2024-01-07T03:12:33;98173.53;;;1.11;98.47
55373;BME280;70018;47.838;16.490;2024-01-07T03:15:00;98166.97;;;1.12;98.30
55373;BME280;70018;47.838;16.490;2024-01-07T03:17:27;98159.19;;;1.11;96.37
55373;BME280;70018;47.838;16.490;2024-01-07T03:19:54;98171.47;;;1.08;95.27
55373;BME280;70018;47.838;16.490;2024-01-07T03:22:20;98149.34;;;1.06;95.89
55373;BME280;70018;47.838;16.490;2024-01-07T03:24:47;98164.00;;;1.05;95.68
55373;BME280;70018;47.838;16.490;2024-01-07T03:27:14;98170.56;;;1.04;95.32
55373;BME280;70018;47.838;16.490;2024-01-07T03:29:41;98163.53;;;1.03;94.45
55373;BME280;70018;47.838;16.490;2024-01-07T03:32:08;98163.53;;;1.03;95.28
55373;BME280;70018;47.838;16.490;2024-01-07T03:34:34;98175.97;;;1.04;95.51
55373;BME280;70018;47.838;16.490;2024-01-07T03:37:01;98164.66;;;1.02;96.30
55373;BME280;70018;47.838;16.490;2024-01-07T03:39:28;98191.00;;;1.02;97.27
55373;BME280;70018;47.838;16.490;2024-01-07T03:41:55;98157.97;;;1.00;97.38
55373;BME280;70018;47.838;16.490;2024-01-07T03:44:22;98181.59;;;0.99;97.23
55373;BME280;70018;47.838;16.490;2024-01-07T03:46:49;98166.91;;;1.00;95.55
55373;BME280;70018;47.838;16.490;2024-01-07T03:49:16;98172.00;;;1.02;96.26
55373;BME280;70018;47.838;16.490;2024-01-07T03:51:44;98166.44;;;0.98;94.58
55373;BME280;70018;47.838;16.490;2024-01-07T03:54:11;98169.81;;;0.95;92.96
55373;BME280;70018;47.838;16.490;2024-01-07T03:56:38;98170.50;;;0.92;93.41
55373;BME280;70018;47.838;16.490;2024-01-07T03:59:04;98171.13;;;0.89;93.55
55373;BME280;70018;47.838;16.490;2024-01-07T04:01:31;98162.56;;;0.87;93.90
55373;BME280;70018;47.838;16.490;2024-01-07T04:03:58;98171.34;;;0.84;93.45
55373;BME280;70018;47.838;16.490;2024-01-07T04:06:25;98193.81;;;0.85;93.65
55373;BME280;70018;47.838;16.490;2024-01-07T04:08:52;98175.16;;;0.83;93.26
55373;BME280;70018;47.838;16.490;2024-01-07T04:11:18;98185.34;;;0.86;93.32
55373;BME280;70018;47.838;16.490;2024-01-07T04:13:45;98189.16;;;0.85;93.06
55373;BME280;70018;47.838;16.490;2024-01-07T04:16:20;98214.81;;;0.88;93.33
55373;BME280;70018;47.838;16.490;2024-01-07T04:18:48;98201.59;;;0.86;93.85
55373;BME280;70018;47.838;16.490;2024-01-07T04:21:19;98215.59;;;0.88;95.86
55373;BME280;70018;47.838;16.490;2024-01-07T04:23:46;98215.59;;;0.88;96.03
55373;BME280;70018;47.838;16.490;2024-01-07T04:26:13;98218.78;;;0.90;95.77
55373;BME280;70018;47.838;16.490;2024-01-07T04:28:44;98221.19;;;0.92;96.17
55373;BME280;70018;47.838;16.490;2024-01-07T04:31:10;98227.06;;;0.94;96.47
55373;BME280;70018;47.838;16.490;2024-01-07T04:33:37;98226.06;;;0.98;97.65
55373;BME280;70018;47.838;16.490;2024-01-07T04:36:04;98235.31;;;0.97;97.35
55373;BME280;70018;47.838;16.490;2024-01-07T04:38:31;98236.00;;;0.94;95.99
55373;BME280;70018;47.838;16.490;2024-01-07T04:40:58;98245.88;;;0.90;95.23
55373;BME280;70018;47.838;16.490;2024-01-07T04:43:25;98250.03;;;0.88;94.43
55373;BME280;70018;47.838;16.490;2024-01-07T04:45:52;98250.22;;;0.83;91.72
55373;BME280;70018;47.838;16.490;2024-01-07T04:48:18;98248.50;;;0.78;91.55
55373;BME280;70018;47.838;16.490;2024-01-07T04:50:45;98235.94;;;0.74;91.09
55373;BME280;70018;47.838;16.490;2024-01-07T04:53:12;98252.53;;;0.72;91.62
55373;BME280;70018;47.838;16.490;2024-01-07T04:55:39;98252.72;;;0.67;92.08
55373;BME280;70018;47.838;16.490;2024-01-07T04:58:06;98248.88;;;0.68;91.38
55373;BME280;70018;47.838;16.490;2024-01-07T05:00:32;98262.41;;;0.68;91.54
55373;BME280;70018;47.838;16.490;2024-01-07T05:02:59;98280.72;;;0.71;92.74
55373;BME280;70018;47.838;16.490;2024-01-07T05:05:26;98273.72;;;0.70;92.76
55373;BME280;70018;47.838;16.490;2024-01-07T05:07:53;98274.19;;;0.72;92.87
55373;BME280;70018;47.838;16.490;2024-01-07T05:10:19;98275.59;;;0.78;93.52
55373;BME280;70018;47.838;16.490;2024-01-07T05:12:46;98276.25;;;0.75;93.98
55373;BME280;70018;47.838;16.490;2024-01-07T05:15:13;98276.41;;;0.70;94.41
55373;BME280;70018;47.838;16.490;2024-01-07T05:17:40;98268.66;;;0.60;95.08
55373;BME280;70018;47.838;16.490;2024-01-07T05:20:07;98274.75;;;0.57;94.49
55373;BME280;70018;47.838;16.490;2024-01-07T05:22:34;98271.53;;;0.55;94.00
55373;BME280;70018;47.838;16.490;2024-01-07T05:25:01;98281.59;;;0.54;93.61
55373;BME280;70018;47.838;16.490;2024-01-07T05:27:27;98286.50;;;0.52;94.31
55373;BME280;70018;47.838;16.490;2024-01-07T05:29:55;98289.91;;;0.49;94.48
55373;BME280;70018;47.838;16.490;2024-01-07T05:32:21;98286.69;;;0.47;94.79
55373;BME280;70018;47.838;16.490;2024-01-07T05:34:49;98290.38;;;0.51;96.00
55373;BME280;70018;47.838;16.490;2024-01-07T05:37:17;98280.34;;;0.52;96.27
55373;BME280;70018;47.838;16.490;2024-01-07T05:39:43;98281.09;;;0.52;95.85
55373;BME280;70018;47.838;16.490;2024-01-07T05:42:10;98293.19;;;0.55;96.51
55373;BME280;70018;47.838;16.490;2024-01-07T05:44:37;98302.78;;;0.52;95.51
55373;BME280;70018;47.838;16.490;2024-01-07T05:47:04;98280.78;;;0.54;96.67
55373;BME280;70018;47.838;16.490;2024-01-07T05:49:30;98294.34;;;0.54;96.48
55373;BME280;70018;47.838;16.490;2024-01-07T05:51:58;98304.22;;;0.50;94.68
55373;BME280;70018;47.838;16.490;2024-01-07T05:54:24;98311.22;;;0.51;95.50
55373;BME280;70018;47.838;16.490;2024-01-07T05:56:53;98298.94;;;0.53;95.82
55373;BME280;70018;47.838;16.490;2024-01-07T05:59:19;98298.63;;;0.55;95.87
55373;BME280;70018;47.838;16.490;2024-01-07T06:01:46;98323.78;;;0.55;95.13
55373;BME280;70018;47.838;16.490;2024-01-07T06:04:13;98318.72;;;0.54;95.74
55373;BME280;70018;47.838;16.490;2024-01-07T06:06:40;98321.41;;;0.54;95.66
55373;BME280;70018;47.838;16.490;2024-01-07T06:09:07;98320.97;;;0.52;96.71
55373;BME280;70018;47.838;16.490;2024-01-07T06:11:33;98326.22;;;0.48;96.39
55373;BME280;70018;47.838;16.490;2024-01-07T06:14:00;98307.88;;;0.54;97.12
55373;BME280;70018;47.838;16.490;2024-01-07T06:16:27;98322.22;;;0.54;97.72
55373;BME280;70018;47.838;16.490;2024-01-07T06:18:54;98331.78;;;0.52;98.16
55373;BME280;70018;47.838;16.490;2024-01-07T06:21:20;98342.63;;;0.52;97.85
55373;BME280;70018;47.838;16.490;2024-01-07T06:23:47;98330.03;;;0.47;97.50
55373;BME280;70018;47.838;16.490;2024-01-07T06:26:15;98335.78;;;0.46;98.54
55373;BME280;70018;47.838;16.490;2024-01-07T06:28:41;98333.88;;;0.46;97.58
55373;BME280;70018;47.838;16.490;2024-01-07T06:31:08;98325.56;;;0.43;97.61
55373;BME280;70018;47.838;16.490;2024-01-07T06:33:35;98336.59;;;0.38;97.87
55373;BME280;70018;47.838;16.490;2024-01-07T06:36:02;98333.41;;;0.36;98.50
55373;BME280;70018;47.838;16.490;2024-01-07T06:38:29;98343.75;;;0.34;99.41
55373;BME280;70018;47.838;16.490;2024-01-07T06:40:55;98330.22;;;0.34;99.78
55373;BME280;70018;47.838;16.490;2024-01-07T06:43:27;98346.47;;;0.34;99.26
55373;BME280;70018;47.838;16.490;2024-01-07T06:45:54;98321.00;;;0.35;100.00
55373;BME280;70018;47.838;16.490;2024-01-07T06:48:21;98340.59;;;0.32;100.00
55373;BME280;70018;47.838;16.490;2024-01-07T06:50:48;98349.50;;;0.32;100.00
55373;BME280;70018;47.838;16.490;2024-01-07T06:53:14;98332.47;;;0.32;99.77
55373;BME280;70018;47.838;16.490;2024-01-07T06:55:42;98345.53;;;0.30;99.92
55373;BME280;70018;47.838;16.490;2024-01-07T06:58:09;98357.00;;;0.27;99.02
55373;BME280;70018;47.838;16.490;2024-01-07T07:00:36;98349.97;;;0.26;98.59
55373;BME280;70018;47.838;16.490;2024-01-07T07:03:03;98357.63;;;0.24;98.07
55373;BME280;70018;47.838;16.490;2024-01-07T07:05:31;98339.31;;;0.21;98.19
55373;BME280;70018;47.838;16.490;2024-01-07T07:07:58;98347.13;;;0.14;98.03
55373;BME280;70018;47.838;16.490;2024-01-07T07:10:25;98366.72;;;0.11;97.46
55373;BME280;70018;47.838;16.490;2024-01-07T07:12:52;98354.78;;;0.12;96.83
55373;BME280;70018;47.838;16.490;2024-01-07T07:15:18;98352.88;;;0.04;95.88
55373;BME280;70018;47.838;16.490;2024-01-07T07:17:45;98349.69;;;0.02;95.53
55373;BME280;70018;47.838;16.490;2024-01-07T07:20:12;98360.34;;;-0.02;96.04
55373;BME280;70018;47.838;16.490;2024-01-07T07:22:39;98351.75;;;-0.04;96.78
55373;BME280;70018;47.838;16.490;2024-01-07T07:25:06;98369.88;;;-0.05;96.94
55373;BME280;70018;47.838;16.490;2024-01-07T07:27:33;98368.63;;;-0.07;96.99
55373;BME280;70018;47.838;16.490;2024-01-07T07:29:59;98375.16;;;-0.08;97.65
55373;BME280;70018;47.838;16.490;2024-01-07T07:32:26;98380.88;;;-0.10;97.92
55373;BME280;70018;47.838;16.490;2024-01-07T07:34:53;98384.56;;;-0.06;98.61
55373;BME280;70018;47.838;16.490;2024-01-07T07:37:20;98374.03;;;-0.07;97.86
55373;BME280;70018;47.838;16.490;2024-01-07T07:39:47;98379.44;;;-0.07;98.46
55373;BME280;70018;47.838;16.490;2024-01-07T07:42:14;98368.63;;;-0.07;96.91
55373;BME280;70018;47.838;16.490;2024-01-07T07:44:40;98399.66;;;-0.13;97.11
55373;BME280;70018;47.838;16.490;2024-01-07T07:47:08;98393.28;;;-0.17;96.85
55373;BME280;70018;47.838;16.490;2024-01-07T07:49:38;98394.06;;;-0.17;98.46
55373;BME280;70018;47.838;16.490;2024-01-07T07:52:07;98409.66;;;-0.22;98.65
55373;BME280;70018;47.838;16.490;2024-01-07T07:54:38;98423.19;;;-0.22;99.69
55373;BME280;70018;47.838;16.490;2024-01-07T07:57:05;98409.50;;;-0.26;100.00
55373;BME280;70018;47.838;16.490;2024-01-07T07:59:32;98401.06;;;-0.24;100.00
55373;BME280;70018;47.838;16.490;2024-01-07T08:01:58;98418.09;;;-0.24;100.00
55373;BME280;70018;47.838;16.490;2024-01-07T08:04:26;98404.91;;;-0.25;100.00
55373;BME280;70018;47.838;16.490;2024-01-07T08:06:53;98418.44;;;-0.25;100.00
55373;BME280;70018;47.838;16.490;2024-01-07T08:09:22;98419.03;;;-0.37;98.55
55373;BME280;70018;47.838;16.490;2024-01-07T08:11:52;98441.13;;;-0.43;98.19
55373;BME280;70018;47.838;16.490;2024-01-07T08:14:18;98435.38;;;-0.42;98.53
55373;BME280;70018;47.838;16.490;2024-01-07T08:16:45;98435.25;;;-0.45;97.12
55373;BME280;70018;47.838;16.490;2024-01-07T08:19:12;98441.41;;;-0.45;98.11
55373;BME280;70018;47.838;16.490;2024-01-07T08:21:39;98443.50;;;-0.42;98.93
55373;BME280;70018;47.838;16.490;2024-01-07T08:24:06;98431.09;;;-0.43;98.79
55373;BME280;70018;47.838;16.490;2024-01-07T08:26:33;98433.31;;;-0.45;99.85
55373;BME280;70018;47.838;16.490;2024-01-07T08:28:59;98449.53;;;-0.45;100.00
55373;BME280;70018;47.838;16.490;2024-01-07T08:31:26;98451.63;;;-0.42;100.00
55373;BME280;70018;47.838;16.490;2024-01-07T08:33:53;98477.41;;;-0.36;100.00
55373;BME280;70018;47.838;16.490;2024-01-07T08:36:20;98458.34;;;-0.31;100.00
55373;BME280;70018;47.838;16.490;2024-01-07T08:38:46;98456.91;;;-0.28;100.00
55373;BME280;70018;47.838;16.490;2024-01-07T08:41:17;98475.38;;;-0.22;100.00
55373;BME280;70018;47.838;16.490;2024-01-07T08:43:44;98470.59;;;-0.25;100.00
55373;BME280;70018;47.838;16.490;2024-01-07T08:46:11;98483.97;;;-0.20;100.00
55373;BME280;70018;47.838;16.490;2024-01-07T08:48:40;98493.38;;;-0.26;100.00
55373;BME280;70018;47.838;16.490;2024-01-07T08:51:07;98480.94;;;-0.27;100.00
55373;BME280;70018;47.838;16.490;2024-01-07T08:53:34;98465.47;;;-0.35;97.93
55373;BME280;70018;47.838;16.490;2024-01-07T08:56:00;98478.53;;;-0.37;96.88
55373;BME280;70018;47.838;16.490;2024-01-07T08:58:27;98492.88;;;-0.28;97.15
55373;BME280;70018;47.838;16.490;2024-01-07T09:00:54;98492.38;;;-0.30;96.87
55373;BME280;70018;47.838;16.490;2024-01-07T09:03:20;98499.88;;;-0.27;96.88
55373;BME280;70018;47.838;16.490;2024-01-07T09:05:47;98502.75;;;-0.23;97.84
55373;BME280;70018;47.838;16.490;2024-01-07T09:08:14;98494.81;;;-0.20;98.33
55373;BME280;70018;47.838;16.490;2024-01-07T09:10:41;98511.53;;;-0.18;97.84
55373;BME280;70018;47.838;16.490;2024-01-07T09:13:08;98510.88;;;-0.15;98.64
55373;BME280;70018;47.838;16.490;2024-01-07T09:15:35;98500.41;;;-0.16;98.85
55373;BME280;70018;47.838;16.490;2024-01-07T09:18:01;98500.91;;;-0.06;99.67
55373;BME280;70018;47.838;16.490;2024-01-07T09:20:29;98502.19;;;-0.03;100.00
55373;BME280;70018;47.838;16.490;2024-01-07T09:22:56;98522.06;;;-0.08;100.00
55373;BME280;70018;47.838;16.490;2024-01-07T09:25:23;98527.88;;;-0.31;98.49
55373;BME280;70018;47.838;16.490;2024-01-07T09:27:50;98523.81;;;-0.51;96.85
55373;BME280;70018;47.838;16.490;2024-01-07T09:30:17;98516.97;;;-0.48;96.86
55373;BME280;70018;47.838;16.490;2024-01-07T09:32:44;98501.09;;;-0.50;97.22
55373;BME280;70018;47.838;16.490;2024-01-07T09:35:10;98500.91;;;-0.53;96.17
55373;BME280;70018;47.838;16.490;2024-01-07T09:37:37;98505.97;;;-0.52;96.04
55373;BME280;70018;47.838;16.490;2024-01-07T09:40:04;98502.00;;;-0.54;95.51
55373;BME280;70018;47.838;16.490;2024-01-07T09:42:33;98512.84;;;-0.46;95.84
55373;BME280;70018;47.838;16.490;2024-01-07T09:45:03;98511.31;;;-0.38;96.10
55373;BME280;70018;47.838;16.490;2024-01-07T09:47:35;98498.44;;;-0.33;95.96
55373;BME280;70018;47.838;16.490;2024-01-07T09:50:02;98510.69;;;-0.27;95.89
55373;BME280;70018;47.838;16.490;2024-01-07T09:52:28;98510.41;;;-0.17;96.04
55373;BME280;70018;47.838;16.490;2024-01-07T09:54:58;98502.28;;;-0.17;96.06
55373;BME280;70018;47.838;16.490;2024-01-07T09:57:27;98503.91;;;-0.07;96.82
55373;BME280;70018;47.838;16.490;2024-01-07T09:59:53;98511.88;;;-0.11;96.55
55373;BME280;70018;47.838;16.490;2024-01-07T10:02:20;98505.84;;;-0.08;96.68
55373;BME280;70018;47.838;16.490;2024-01-07T10:04:49;98505.53;;;-0.06;96.67
55373;BME280;70018;47.838;16.490;2024-01-07T10:07:16;98493.44;;;0.09;96.82
55373;BME280;70018;47.838;16.490;2024-01-07T10:09:44;98487.38;;;0.03;95.72
55373;BME280;70018;47.838;16.490;2024-01-07T10:12:11;98497.28;;;0.16;95.68
55373;BME280;70018;47.838;16.490;2024-01-07T10:14:39;98502.53;;;0.04;93.41
55373;BME280;70018;47.838;16.490;2024-01-07T10:17:25;98502.50;;;-0.05;94.02
55373;BME280;70018;47.838;16.490;2024-01-07T10:19:54;98505.03;;;0.00;95.23
55373;BME280;70018;47.838;16.490;2024-01-07T10:22:22;98519.84;;;0.03;95.94
55373;BME280;70018;47.838;16.490;2024-01-07T10:24:51;98525.28;;;0.03;96.29
55373;BME280;70018;47.838;16.490;2024-01-07T10:27:18;98524.69;;;0.15;96.26
55373;BME280;70018;47.838;16.490;2024-01-07T10:29:47;98533.16;;;0.39;96.46
55373;BME280;70018;47.838;16.490;2024-01-07T10:32:19;98544.75;;;0.31;95.71
55373;BME280;70018;47.838;16.490;2024-01-07T10:34:46;98518.47;;;0.23;94.68
55373;BME280;70018;47.838;16.490;2024-01-07T10:37:14;98515.75;;;0.14;93.38
55373;BME280;70018;47.838;16.490;2024-01-07T10:39:41;98520.84;;;0.16;92.98
55373;BME280;70018;47.838;16.490;2024-01-07T10:42:09;98521.63;;;0.08;92.11
55373;BME280;70018;47.838;16.490;2024-01-07T10:44:38;98526.09;;;0.21;92.74
55373;BME280;70018;47.838;16.490;2024-01-07T10:47:07;98519.75;;;0.17;90.55
55373;BME280;70018;47.838;16.490;2024-01-07T10:49:40;98518.44;;;0.06;90.83
55373;BME280;70018;47.838;16.490;2024-01-07T10:52:10;98536.91;;;0.04;91.29
55373;BME280;70018;47.838;16.490;2024-01-07T10:54:39;98538.66;;;0.08;91.57
55373;BME280;70018;47.838;16.490;2024-01-07T10:57:21;98521.50;;;0.21;92.69
55373;BME280;70018;47.838;16.490;2024-01-07T10:59:52;98535.00;;;0.13;92.63
55373;BME280;70018;47.838;16.490;2024-01-07T11:02:21;98524.81;;;0.10;93.32
55373;BME280;70018;47.838;16.490;2024-01-07T11:04:56;98517.63;;;0.05;93.60
55373;BME280;70018;47.838;16.490;2024-01-07T11:07:31;98535.03;;;0.21;93.86
55373;BME280;70018;47.838;16.490;2024-01-07T11:10:10;98530.25;;;0.10;94.85
55373;BME280;70018;47.838;16.490;2024-01-07T11:12:38;98531.47;;;0.04;96.54
55373;BME280;70018;47.838;16.490;2024-01-07T11:15:05;98525.13;;;-0.01;96.19
55373;BME280;70018;47.838;16.490;2024-01-07T11:20:18;98506.66;;;0.02;96.72
55373;BME280;70018;47.838;16.490;2024-01-07T11:22:45;98534.53;;;0.02;96.22
55373;BME280;70018;47.838;16.490;2024-01-07T11:25:30;98510.16;;;0.02;96.06
55373;BME280;70018;47.838;16.490;2024-01-07T11:28:03;98538.28;;;-0.16;93.81
55373;BME280;70018;47.838;16.490;2024-01-07T11:30:38;98520.56;;;-0.22;93.50
55373;BME280;70018;47.838;16.490;2024-01-07T11:33:06;98522.50;;;-0.23;94.08
55373;BME280;70018;47.838;16.490;2024-01-07T11:35:59;98511.81;;;-0.28;93.20
55373;BME280;70018;47.838;16.490;2024-01-07T11:38:27;98513.72;;;-0.28;93.14
55373;BME280;70018;47.838;16.490;2024-01-07T11:40:54;98513.41;;;-0.27;92.58
55373;BME280;70018;47.838;16.490;2024-01-07T11:43:54;98531.56;;;-0.19;91.98
55373;BME280;70018;47.838;16.490;2024-01-07T11:46:22;98502.59;;;-0.27;92.75
55373;BME280;70018;47.838;16.490;2024-01-07T11:48:53;98520.41;;;-0.26;93.12
55373;BME280;70018;47.838;16.490;2024-01-07T11:51:20;98487.16;;;-0.26;93.38
55373;BME280;70018;47.838;16.490;2024-01-07T11:53:47;98499.69;;;-0.39;91.81
55373;BME280;70018;47.838;16.490;2024-01-07T11:56:14;98523.22;;;-0.39;91.45
55373;BME280;70018;47.838;16.490;2024-01-07T11:58:41;98528.34;;;-0.29;92.81
55373;BME280;70018;47.838;16.490;2024-01-07T12:01:08;98535.81;;;-0.35;92.47
55373;BME280;70018;47.838;16.490;2024-01-07T12:03:35;98534.03;;;-0.39;91.71
55373;BME280;70018;47.838;16.490;2024-01-07T12:06:03;98542.81;;;-0.34;91.94
55373;BME280;70018;47.838;16.490;2024-01-07T12:08:31;98531.25;;;-0.26;92.49
55373;BME280;70018;47.838;16.490;2024-01-07T12:10:59;98521.03;;;-0.29;92.26
55373;BME280;70018;47.838;16.490;2024-01-07T12:13:26;98516.09;;;-0.27;92.30
55373;BME280;70018;47.838;16.490;2024-01-07T12:15:53;98519.13;;;-0.28;90.39
55373;BME280;70018;47.838;16.490;2024-01-07T12:18:20;98522.66;;;-0.28;90.76
55373;BME280;70018;47.838;16.490;2024-01-07T12:20:58;98538.47;;;-0.13;91.92
55373;BME280;70018;47.838;16.490;2024-01-07T12:23:25;98526.81;;;-0.13;91.08
55373;BME280;70018;47.838;16.490;2024-01-07T12:25:53;98520.00;;;-0.11;90.42
55373;BME280;70018;47.838;16.490;2024-01-07T12:28:19;98505.19;;;-0.13;89.49
55373;BME280;70018;47.838;16.490;2024-01-07T12:30:50;98523.31;;;-0.14;89.86
55373;BME280;70018;47.838;16.490;2024-01-07T12:33:20;98495.66;;;-0.11;89.64
55373;BME280;70018;47.838;16.490;2024-01-07T12:35:47;98500.28;;;-0.03;88.59
55373;BME280;70018;47.838;16.490;2024-01-07T12:38:14;98516.84;;;0.05;87.17
55373;BME280;70018;47.838;16.490;2024-01-07T12:40:41;98513.31;;;-0.05;87.27
55373;BME280;70018;47.838;16.490;2024-01-07T12:43:08;98519.56;;;0.05;87.34
55373;BME280;70018;47.838;16.490;2024-01-07T12:45:35;98531.34;;;0.09;87.65
55373;BME280;70018;47.838;16.490;2024-01-07T12:48:02;98532.09;;;0.00;86.81
55373;BME280;70018;47.838;16.490;2024-01-07T12:50:29;98539.59;;;0.04;87.14
55373;BME280;70018;47.838;16.490;2024-01-07T12:52:58;98528.97;;;0.07;88.10
55373;BME280;70018;47.838;16.490;2024-01-07T12:55:26;98529.59;;;0.04;87.48
55373;BME280;70018;47.838;16.490;2024-01-07T12:57:53;98524.97;;;0.13;87.47
55373;BME280;70018;47.838;16.490;2024-01-07T13:00:21;98527.69;;;0.05;87.79